createdAt,value
2024-03-02T00:02:31.851Z,9.33
2024-03-02T00:05:21.375Z,10.10
2024-03-02T00:08:09.224Z,11.17
2024-03-02T00:10:59.356Z,9.43
2024-03-02T00:13:48.093Z,10.67
2024-03-02T00:16:35.877Z,9.97
2024-03-02T00:19:24.052Z,9.97
2024-03-02T00:22:12.066Z,10.57
2024-03-02T00:25:00.597Z,9.90
2024-03-02T00:27:50.779Z,10.60
2024-03-02T00:31:00.401Z,11.43
2024-03-02T00:33:49.340Z,11.63
2024-03-02T00:36:36.738Z,11.70
2024-03-02T00:39:24.572Z,12.30
2024-03-02T00:42:13.167Z,12.77
2024-03-02T00:45:00.683Z,12.00
2024-03-02T00:47:49.497Z,12.83
2024-03-02T00:50:37.311Z,12.43
2024-03-02T00:53:27.200Z,11.33
2024-03-02T00:56:15.195Z,12.50
2024-03-02T00:59:02.925Z,12.77
2024-03-02T01:01:51.002Z,11.67
2024-03-02T01:04:40.147Z,12.03
2024-03-02T01:07:27.505Z,10.23
2024-03-02T01:10:15.383Z,11.63
2024-03-02T01:13:02.717Z,11.90
2024-03-02T01:15:50.660Z,12.23
2024-03-02T01:18:37.923Z,12.30
2024-03-02T01:21:27.155Z,11.53
2024-03-02T01:24:14.555Z,11.83
2024-03-02T01:27:02.386Z,11.67
2024-03-02T01:29:49.671Z,12.17
2024-03-02T01:32:39.325Z,13.47
2024-03-02T01:35:27.715Z,14.10
2024-03-02T01:38:16.840Z,13.33
2024-03-02T01:41:04.376Z,13.33
2024-03-02T01:43:52.190Z,12.10
2024-03-02T01:46:39.525Z,11.63
2024-03-02T01:49:27.219Z,11.67
2024-03-02T01:52:14.762Z,10.67
2024-03-02T01:55:04.931Z,11.53
2024-03-02T01:57:53.863Z,10.53
2024-03-02T02:00:41.189Z,10.60
2024-03-02T02:03:29.035Z,10.43
2024-03-02T02:06:16.444Z,10.10
2024-03-02T02:09:04.469Z,10.40
2024-03-02T02:11:53.319Z,10.13
2024-03-02T02:14:47.819Z,10.67
2024-03-02T02:17:35.467Z,10.37
2024-03-02T02:20:23.572Z,10.73
2024-03-02T02:23:13.744Z,9.90
2024-03-02T02:26:01.447Z,9.93
2024-03-02T02:28:48.780Z,9.43
2024-03-02T02:31:40.286Z,10.07
2024-03-02T02:34:27.681Z,11.13
2024-03-02T02:37:15.171Z,9.90
2024-03-02T02:40:06.301Z,10.40
2024-03-02T02:42:54.040Z,9.57
2024-03-02T02:45:41.927Z,9.97
2024-03-02T02:48:29.143Z,9.63
2024-03-02T02:51:18.482Z,9.37
2024-03-02T02:54:05.885Z,9.70
2024-03-02T02:56:55.081Z,10.43
2024-03-02T02:59:42.360Z,11.33
2024-03-02T03:02:30.240Z,11.47
2024-03-02T03:05:18.167Z,11.43
2024-03-02T03:08:05.742Z,10.90
2024-03-02T03:10:53.590Z,10.73
2024-03-02T03:13:42.440Z,10.27
2024-03-02T03:16:30.169Z,10.20
2024-03-02T03:19:17.504Z,10.70
2024-03-02T03:22:05.733Z,10.13
2024-03-02T03:24:53.231Z,10.67
2024-03-02T03:27:41.159Z,10.73
2024-03-02T03:30:30.229Z,11.63
2024-03-02T03:33:18.016Z,11.17
2024-03-02T03:36:05.773Z,10.27
2024-03-02T03:38:53.065Z,11.13
2024-03-02T03:41:42.178Z,11.17
2024-03-02T03:44:29.766Z,11.87
2024-03-02T03:47:18.393Z,11.00
2024-03-02T03:50:08.879Z,9.93
2024-03-02T03:52:56.570Z,10.93
2024-03-02T03:55:43.959Z,12.30
2024-03-02T03:58:31.634Z,11.83
2024-03-02T04:01:19.166Z,13.00
2024-03-02T04:04:08.334Z,12.37
2024-03-02T04:06:55.771Z,12.53
2024-03-02T04:09:43.445Z,13.33
2024-03-02T04:12:30.871Z,13.67
2024-03-02T04:15:20.125Z,13.67
2024-03-02T04:18:07.825Z,14.63
2024-03-02T04:20:56.960Z,13.87
2024-03-02T04:23:44.841Z,14.87
2024-03-02T04:26:33.089Z,13.77
2024-03-02T04:29:20.490Z,14.23
2024-03-02T04:32:08.781Z,13.87
2024-03-02T04:34:56.039Z,14.27
2024-03-02T04:37:45.292Z,14.80
2024-03-02T04:40:33.321Z,14.20
2024-03-02T04:43:21.098Z,14.43
2024-03-02T04:46:08.673Z,14.77
2024-03-02T04:48:58.551Z,14.30
2024-03-02T04:51:45.995Z,14.50
2024-03-02T04:54:55.161Z,14.60
2024-03-02T04:57:42.775Z,13.80
2024-03-02T05:00:30.196Z,14.23
2024-03-02T05:03:17.724Z,14.30
2024-03-02T05:06:05.408Z,14.10
2024-03-02T05:08:53.106Z,15.07
2024-03-02T05:11:41.728Z,14.50
2024-03-02T05:14:30.209Z,15.23
2024-03-02T05:17:17.483Z,15.20
2024-03-02T05:20:06.322Z,15.00
2024-03-02T05:22:53.582Z,15.53
2024-03-02T05:25:41.422Z,14.70
2024-03-02T05:28:30.038Z,14.27
2024-03-02T05:31:18.378Z,15.67
2024-03-02T05:34:06.580Z,15.10
2024-03-02T05:36:54.770Z,15.53
2024-03-02T05:39:42.276Z,14.43
2024-03-02T05:42:29.611Z,15.87
2024-03-02T05:45:18.829Z,15.53
2024-03-02T05:48:07.358Z,15.70
2024-03-02T05:50:55.072Z,15.47
2024-03-02T05:53:42.991Z,16.13
2024-03-02T05:56:30.739Z,16.00
2024-03-02T05:59:18.180Z,15.83
2024-03-02T06:02:07.346Z,16.47
2024-03-02T06:04:57.140Z,17.07
2024-03-02T06:07:44.965Z,16.33
2024-03-02T06:10:32.507Z,15.43
2024-03-02T06:13:19.809Z,15.90
2024-03-02T06:16:08.244Z,15.90
2024-03-02T06:18:58.838Z,16.50
2024-03-02T06:21:46.672Z,16.17
2024-03-02T06:24:33.952Z,16.90
2024-03-02T06:27:21.302Z,16.23
2024-03-02T06:30:10.050Z,16.53
2024-03-02T06:32:57.642Z,17.50
2024-03-02T06:35:46.238Z,17.37
2024-03-02T06:38:34.158Z,16.00
2024-03-02T06:41:21.449Z,16.57
2024-03-02T06:44:09.184Z,19.03
2024-03-02T06:46:56.485Z,17.47
2024-03-02T06:49:44.472Z,16.50
2024-03-02T06:52:33.090Z,15.83
2024-03-02T06:55:20.602Z,16.40
2024-03-02T06:58:07.997Z,18.33
2024-03-02T07:00:55.551Z,16.33
2024-03-02T07:03:43.143Z,17.30
2024-03-02T07:06:30.631Z,18.33
2024-03-02T07:09:19.375Z,17.20
2024-03-02T07:12:07.521Z,17.17
2024-03-02T07:14:58.061Z,17.20
2024-03-02T07:17:45.774Z,17.33
2024-03-02T07:20:33.073Z,17.07
2024-03-02T07:23:21.977Z,19.03
2024-03-02T07:29:02.428Z,19.73
2024-03-02T07:31:50.121Z,18.77
2024-03-02T07:34:38.629Z,16.47
2024-03-02T07:37:26.482Z,16.70
2024-03-02T07:40:14.044Z,17.60
2024-03-02T07:43:02.987Z,17.27
2024-03-02T07:45:50.471Z,17.33
2024-03-02T07:48:38.929Z,16.47
2024-03-02T07:51:26.391Z,15.40
2024-03-02T07:54:14.193Z,17.03
2024-03-02T07:57:01.643Z,15.93
2024-03-02T07:59:50.985Z,14.27
2024-03-02T08:02:38.263Z,13.00
2024-03-02T08:05:26.119Z,12.93
2024-03-02T08:08:13.470Z,11.47
2024-03-02T08:11:01.878Z,11.93
2024-03-02T08:13:49.911Z,9.20
2024-03-02T08:16:38.564Z,9.67
2024-03-02T08:19:26.001Z,9.80
2024-03-02T08:22:13.364Z,9.57
2024-03-02T08:25:00.806Z,8.60
2024-03-02T08:27:48.305Z,7.87
2024-03-02T08:30:36.098Z,8.93
2024-03-02T08:33:24.785Z,8.80
2024-03-02T08:36:12.549Z,7.63
2024-03-02T08:38:59.926Z,7.93
2024-03-02T08:41:47.716Z,7.20
2024-03-02T08:44:35.086Z,7.27
2024-03-02T08:47:22.451Z,7.00
2024-03-02T08:50:11.434Z,6.88
2024-03-02T08:52:58.711Z,6.28
2024-03-02T08:55:46.972Z,5.85
2024-03-02T08:58:34.338Z,6.00
2024-03-02T09:01:21.875Z,6.40
2024-03-02T09:04:11.868Z,5.28
2024-03-02T09:07:01.621Z,5.80
2024-03-02T09:09:51.354Z,5.47
2024-03-02T09:12:39.466Z,6.47
2024-03-02T09:15:27.149Z,6.40
2024-03-02T09:18:14.646Z,5.22
2024-03-02T09:21:02.419Z,5.10
2024-03-02T09:23:51.042Z,6.05
2024-03-02T09:26:38.819Z,4.68
2024-03-02T09:29:26.228Z,5.20
2024-03-02T09:32:15.388Z,6.35
2024-03-02T09:35:02.645Z,5.90
2024-03-02T09:37:50.102Z,6.55
2024-03-02T09:40:38.883Z,7.22
2024-03-02T09:43:26.439Z,7.03
2024-03-02T09:46:13.933Z,7.90
2024-03-02T09:49:01.813Z,8.65
2024-03-02T09:51:50.303Z,9.48
2024-03-02T09:54:37.686Z,9.15
2024-03-02T09:57:26.581Z,9.93
2024-03-02T10:00:16.193Z,8.98
2024-03-02T10:03:06.108Z,9.18
2024-03-02T10:05:54.054Z,8.77
2024-03-02T10:08:44.973Z,8.95
2024-03-02T10:11:35.826Z,8.13
2024-03-02T10:14:24.509Z,8.13
2024-03-02T10:17:13.552Z,6.95
2024-03-02T10:20:00.900Z,7.55
2024-03-02T10:22:48.236Z,7.72
2024-03-02T10:28:25.958Z,6.68
2024-03-02T10:31:15.103Z,6.90
2024-03-02T10:34:03.314Z,6.32
2024-03-02T10:36:51.078Z,5.57
2024-03-02T10:39:40.820Z,6.00
2024-03-02T10:42:28.568Z,5.43
2024-03-02T10:45:17.288Z,5.00
2024-03-02T10:48:07.859Z,5.05
2024-03-02T10:50:55.141Z,4.50
2024-03-02T10:53:42.649Z,5.47
2024-03-02T10:56:31.399Z,5.72
2024-03-02T10:59:29.573Z,4.75
2024-03-02T11:02:17.796Z,4.13
2024-03-02T11:05:10.282Z,3.42
2024-03-02T11:08:03.949Z,4.75
2024-03-02T11:11:14.388Z,4.22
2024-03-02T11:14:09.622Z,4.25
2024-03-02T11:16:57.526Z,3.90
2024-03-02T11:19:46.464Z,4.18
2024-03-02T11:22:35.818Z,4.15
2024-03-02T11:25:27.859Z,4.20
2024-03-02T11:28:15.161Z,4.53
2024-03-02T11:31:02.688Z,4.50
2024-03-02T11:33:50.648Z,4.97
2024-03-02T11:36:38.170Z,5.50
2024-03-02T11:39:27.397Z,5.18
2024-03-02T11:42:16.333Z,5.55
2024-03-02T11:45:04.385Z,5.00
2024-03-02T11:47:52.807Z,6.18
2024-03-02T11:50:43.023Z,8.18
2024-03-02T11:53:35.534Z,8.98
2024-03-02T11:56:26.801Z,8.00
2024-03-02T11:59:14.476Z,7.82
2024-03-02T12:02:02.494Z,7.78
2024-03-02T12:04:50.989Z,8.48
2024-03-02T12:07:39.786Z,8.13
2024-03-02T12:10:27.906Z,7.80
2024-03-02T12:13:16.692Z,8.38
2024-03-02T12:16:05.140Z,9.68
2024-03-02T12:18:52.355Z,7.20
2024-03-02T12:21:40.549Z,7.45
2024-03-02T12:24:29.675Z,6.90
2024-03-02T12:27:17.782Z,6.75
2024-03-02T12:30:11.667Z,6.63
2024-03-02T12:32:59.373Z,6.03
2024-03-02T12:35:46.783Z,7.93
2024-03-02T12:38:34.584Z,8.23
2024-03-02T12:41:22.190Z,7.38
2024-03-02T12:44:09.877Z,7.53
2024-03-02T12:47:00.216Z,7.68
2024-03-02T12:49:49.633Z,7.50
2024-03-02T12:52:37.533Z,8.50
2024-03-02T12:55:26.226Z,8.40
2024-03-02T12:58:18.427Z,8.32
2024-03-02T13:01:12.473Z,9.85
2024-03-02T13:04:01.743Z,11.15
2024-03-02T13:06:49.329Z,9.93
2024-03-02T13:09:36.746Z,9.80
2024-03-02T13:12:25.523Z,9.93
2024-03-02T13:15:16.235Z,10.07
2024-03-02T13:18:06.107Z,10.98
2024-03-02T13:20:57.145Z,9.77
2024-03-02T13:23:44.461Z,11.05
2024-03-02T13:26:32.262Z,11.18
2024-03-02T13:29:19.542Z,10.68
2024-03-02T13:32:07.220Z,10.45
2024-03-02T13:34:54.672Z,11.05
2024-03-02T13:37:43.857Z,9.88
2024-03-02T13:40:36.314Z,9.00
2024-03-02T13:43:24.977Z,10.05
2024-03-02T13:46:12.395Z,9.43
2024-03-02T13:48:59.827Z,10.88
2024-03-02T13:51:47.110Z,11.25
2024-03-02T13:54:38.296Z,11.88
2024-03-02T13:57:27.456Z,11.88
2024-03-02T14:00:15.343Z,10.50
2024-03-02T14:03:04.563Z,10.10
2024-03-02T14:05:53.862Z,10.98
2024-03-02T14:08:41.482Z,10.13
2024-03-02T14:11:30.143Z,10.15
2024-03-02T14:14:17.673Z,10.38
2024-03-02T14:17:07.222Z,9.23
2024-03-02T14:19:54.895Z,10.25
2024-03-02T14:22:42.479Z,10.48
2024-03-02T14:25:32.356Z,11.30
2024-03-02T14:28:43.183Z,8.85
2024-03-02T14:31:28.598Z,7.70
2024-03-02T14:34:16.049Z,7.90
2024-03-02T14:37:04.499Z,7.18
2024-03-02T14:39:52.056Z,7.43
2024-03-02T14:42:39.419Z,8.80
2024-03-02T14:45:28.068Z,9.43
2024-03-02T14:48:15.910Z,8.27
2024-03-02T14:51:03.891Z,8.48
2024-03-02T14:53:52.193Z,8.65
2024-03-02T14:56:39.989Z,8.57
2024-03-02T14:59:27.255Z,10.45
2024-03-02T15:02:16.460Z,14.80
2024-03-02T15:05:04.925Z,9.02
2024-03-02T15:07:52.521Z,9.02
2024-03-02T15:10:40.349Z,10.13
2024-03-02T15:13:29.125Z,9.35
2024-03-02T15:16:16.513Z,9.40
2024-03-02T15:19:05.486Z,9.25
2024-03-02T15:21:53.155Z,8.80
2024-03-02T15:24:41.637Z,8.88
2024-03-02T15:27:29.096Z,9.20
2024-03-02T15:30:17.588Z,9.45
2024-03-02T15:33:05.138Z,11.25
2024-03-02T15:35:56.105Z,10.68
2024-03-02T15:38:45.102Z,9.95
2024-03-02T15:41:32.355Z,10.27
2024-03-02T15:44:19.897Z,10.48
2024-03-02T15:47:07.199Z,11.27
2024-03-02T15:49:55.215Z,11.32
2024-03-02T15:52:46.236Z,13.45
2024-03-02T15:55:35.549Z,11.75
2024-03-02T15:58:23.032Z,11.18
2024-03-02T16:01:10.611Z,10.80
2024-03-02T16:03:58.060Z,11.27
2024-03-02T16:06:46.029Z,11.00
2024-03-02T16:09:34.668Z,10.48
2024-03-02T16:12:22.892Z,10.60
2024-03-02T16:15:11.230Z,10.90
2024-03-02T16:18:00.313Z,9.20
2024-03-02T16:20:47.965Z,8.63
2024-03-02T16:23:35.341Z,8.25
2024-03-02T16:26:24.438Z,9.35
2024-03-02T16:29:11.738Z,9.80
2024-03-02T16:31:59.706Z,9.65
2024-03-02T16:34:47.523Z,11.13
2024-03-02T16:37:34.986Z,11.23
2024-03-02T16:40:22.728Z,12.20
2024-03-02T16:43:11.369Z,13.90
2024-03-02T16:45:59.145Z,12.50
2024-03-02T16:48:46.395Z,13.53
2024-03-02T16:51:40.000Z,12.90
2024-03-02T16:54:27.352Z,13.37
2024-03-02T16:57:15.129Z,15.20
2024-03-02T17:00:04.208Z,13.43
2024-03-02T17:02:53.775Z,13.07
2024-03-02T17:05:41.465Z,12.90
2024-03-02T17:08:28.849Z,12.53
2024-03-02T17:11:16.683Z,12.87
2024-03-02T17:14:04.781Z,11.10
2024-03-02T17:16:53.978Z,11.10
2024-03-02T17:19:41.770Z,10.43
2024-03-02T17:22:29.509Z,10.80
2024-03-02T17:25:17.003Z,9.90
2024-03-02T17:28:21.260Z,11.17
2024-03-02T17:31:08.797Z,10.17
2024-03-02T17:33:57.948Z,11.13
2024-03-02T17:36:45.199Z,12.10
2024-03-02T17:39:33.050Z,12.80
2024-03-02T17:42:20.509Z,12.70
2024-03-02T17:45:09.150Z,12.03
2024-03-02T17:47:56.818Z,13.20
2024-03-02T17:50:45.421Z,12.87
2024-03-02T17:53:33.235Z,15.67
2024-03-02T17:56:20.598Z,13.17
2024-03-02T17:59:08.383Z,13.87
2024-03-02T18:01:55.758Z,14.00
2024-03-02T18:04:44.366Z,14.40
2024-03-02T18:07:33.548Z,14.87
2024-03-02T18:10:21.463Z,14.77
2024-03-02T18:13:09.242Z,14.17
2024-03-02T18:15:56.950Z,15.17
2024-03-02T18:18:44.826Z,15.40
2024-03-02T18:21:32.435Z,16.40
2024-03-02T18:24:24.646Z,15.57
2024-03-02T18:27:11.954Z,16.37
2024-03-02T18:30:00.296Z,16.77
2024-03-02T18:32:47.728Z,16.10
2024-03-02T18:35:37.685Z,17.67
2024-03-02T18:38:25.120Z,17.00
2024-03-02T18:41:14.279Z,17.17
2024-03-02T18:44:01.527Z,18.57
2024-03-02T18:46:50.172Z,18.03
2024-03-02T18:49:37.436Z,17.80
2024-03-02T18:52:28.990Z,18.97
2024-03-02T18:55:16.361Z,18.23
2024-03-02T18:58:06.883Z,18.80
2024-03-02T19:00:55.028Z,19.67
2024-03-02T19:03:42.644Z,18.10
2024-03-02T19:06:30.492Z,19.27
2024-03-02T19:09:17.831Z,19.97
2024-03-02T19:12:06.590Z,19.87
2024-03-02T19:14:55.209Z,19.03
2024-03-02T19:17:42.949Z,20.43
2024-03-02T19:20:30.303Z,21.20
2024-03-02T19:23:22.061Z,21.33
2024-03-02T19:26:20.102Z,20.57
2024-03-02T19:29:07.868Z,22.63
2024-03-02T19:32:00.553Z,21.33
2024-03-02T19:34:48.073Z,21.73
2024-03-02T19:37:38.519Z,22.93
2024-03-02T19:40:26.650Z,21.80
2024-03-02T19:43:19.054Z,19.90
2024-03-02T19:46:06.327Z,22.47
2024-03-02T19:48:55.494Z,24.43
2024-03-02T19:51:43.092Z,21.63
2024-03-02T19:54:30.460Z,22.70
2024-03-02T19:57:18.729Z,22.57
2024-03-02T20:00:08.120Z,23.60
2024-03-02T20:02:56.961Z,23.73
2024-03-02T20:05:46.202Z,23.80
2024-03-02T20:08:33.400Z,23.83
2024-03-02T20:11:21.098Z,24.47
2024-03-02T20:14:10.736Z,24.37
2024-03-02T20:16:58.076Z,24.20
2024-03-02T20:19:46.533Z,25.57
2024-03-02T20:22:35.151Z,23.80
2024-03-02T20:25:22.972Z,22.77
2024-03-02T20:28:10.279Z,24.60
2024-03-02T20:30:58.175Z,23.37
2024-03-02T20:33:45.376Z,23.77
2024-03-02T20:36:33.055Z,24.90
2024-03-02T20:39:22.334Z,24.70
2024-03-02T20:42:10.185Z,25.00
2024-03-02T20:44:57.528Z,24.50
2024-03-02T20:47:46.559Z,25.67
2024-03-02T20:50:33.872Z,25.07
2024-03-02T20:53:21.634Z,25.23
2024-03-02T20:56:10.345Z,25.43
2024-03-02T20:58:57.947Z,25.27
2024-03-02T21:01:48.059Z,24.77
2024-03-02T21:04:35.994Z,24.23
2024-03-02T21:07:24.064Z,23.67
2024-03-02T21:10:11.490Z,26.43
2024-03-02T21:13:01.012Z,24.50
2024-03-02T21:15:49.953Z,24.87
2024-03-02T21:18:37.830Z,24.37
2024-03-02T21:21:25.159Z,24.30
2024-03-02T21:24:12.684Z,24.60
2024-03-02T21:26:59.957Z,24.37
2024-03-02T21:29:50.206Z,26.13
2024-03-02T21:32:37.798Z,24.80
2024-03-02T21:35:25.316Z,25.57
2024-03-02T21:38:12.866Z,25.53
2024-03-02T21:41:00.204Z,25.80
2024-03-02T21:43:47.772Z,25.27
2024-03-02T21:46:36.567Z,25.90
2024-03-02T21:49:24.572Z,25.07
2024-03-02T21:52:11.844Z,26.57
2024-03-02T21:54:59.670Z,24.73
2024-03-02T21:57:49.068Z,25.33
2024-03-02T22:00:37.452Z,27.33
2024-03-02T22:03:26.044Z,27.80
2024-03-02T22:06:13.895Z,26.47
2024-03-02T22:09:01.226Z,25.60
2024-03-02T22:11:48.801Z,27.10
2024-03-02T22:14:36.067Z,26.80
2024-03-02T22:17:24.087Z,25.17
2024-03-02T22:20:13.431Z,25.67
2024-03-02T22:23:00.716Z,25.37
2024-03-02T22:25:48.509Z,26.80
2024-03-02T22:28:35.838Z,25.17
2024-03-02T22:31:23.538Z,25.20
2024-03-02T22:34:10.839Z,25.93
2024-03-02T22:36:59.489Z,25.30
2024-03-02T22:39:47.335Z,25.50
2024-03-02T22:42:34.881Z,25.37
2024-03-02T22:45:22.675Z,25.40
2024-03-02T22:48:10.038Z,26.70
2024-03-02T22:50:57.791Z,26.43
2024-03-02T22:53:46.425Z,27.20
2024-03-02T22:56:34.197Z,25.97
2024-03-02T22:59:22.103Z,25.43
2024-03-02T23:02:09.914Z,26.87
2024-03-02T23:04:57.106Z,26.87
2024-03-02T23:07:44.837Z,26.53
2024-03-02T23:10:33.752Z,26.10
2024-03-02T23:13:21.917Z,27.53
2024-03-02T23:16:10.118Z,26.60
2024-03-02T23:18:57.576Z,25.80
2024-03-02T23:21:45.104Z,28.73
2024-03-02T23:24:32.691Z,25.47
2024-03-02T23:27:21.787Z,26.83
2024-03-02T23:30:09.916Z,26.53
2024-03-02T23:32:58.154Z,25.97
2024-03-02T23:35:45.709Z,27.60
2024-03-02T23:38:33.457Z,26.00
2024-03-02T23:41:21.690Z,26.17
2024-03-02T23:44:11.992Z,27.53
2024-03-02T23:46:59.270Z,26.73
2024-03-02T23:49:47.005Z,28.00
2024-03-02T23:52:34.590Z,26.63
2024-03-02T23:55:24.304Z,27.07
2024-03-02T23:58:13.222Z,25.63
